Time;durP1;ratioP1;P1;durP2;ratioP2;P2;SDS_P1;SDS_P2;PMS_P1;PMS_P2;Temp;Humidity;BMP_temperature;BMP_pressure;BME280_temperature;BME280_humidity;BME280_pressure;Samples;Min_cycle;Max_cycle;Signal;HPM_P1;HPM_P2
2022/01/02 00:00:08;;;;;;;10.50;9.50;;;8.10;99.90;;;;;;5018381;28;20235;-88
2022/01/02 00:02:35;;;;;;;10.70;9.60;;;8.10;99.90;;;;;;5035169;28;20556;-89
2022/01/02 00:05:10;;;;;;;10.60;9.50;;;8.10;99.90;;;;;;5020620;28;20205;-88
2022/01/02 00:07:50;;;;;;;12.47;11.20;;;8.20;99.90;;;;;;5019751;28;20189;-86
2022/01/02 00:10:20;;;;;;;10.00;8.83;;;8.00;99.90;;;;;;5040187;28;20213;-88
2022/01/02 00:12:52;;;;;;;9.40;8.43;;;7.90;99.90;;;;;;5019061;28;20209;-88
2022/01/02 00:15:20;;;;;;;10.07;9.07;;;7.90;99.90;;;;;;5021213;28;20668;-88
2022/01/02 00:17:48;;;;;;;10.17;9.17;;;8.00;99.90;;;;;;5022128;28;20194;-88
2022/01/02 00:20:17;;;;;;;10.30;9.30;;;7.80;99.90;;;;;;5016146;28;20241;-88
2022/01/02 00:22:48;;;;;;;10.60;9.50;;;7.80;99.90;;;;;;5017315;28;20197;-88
2022/01/02 00:25:26;;;;;;;10.27;9.27;;;7.60;99.90;;;;;;5014469;28;20793;-87
2022/01/02 00:27:53;;;;;;;11.10;9.60;;;7.60;99.90;;;;;;5018181;28;20192;-88
2022/01/02 00:30:19;;;;;;;10.40;9.50;;;7.50;99.90;;;;;;5014854;28;20238;-87
2022/01/02 00:32:45;;;;;;;9.43;8.57;;;7.60;99.90;;;;;;5013910;28;20194;-88
2022/01/02 00:35:11;;;;;;;9.60;8.67;;;7.60;99.90;;;;;;5018166;28;20220;-88
2022/01/02 00:37:38;;;;;;;10.03;9.13;;;7.60;99.90;;;;;;5016694;28;20281;-88
2022/01/02 00:40:05;;;;;;;9.23;8.47;;;7.60;99.90;;;;;;5016510;28;20209;-88
2022/01/02 00:42:34;;;;;;;10.13;9.23;;;7.70;99.90;;;;;;5016932;28;20196;-88
2022/01/02 00:45:07;;;;;;;11.30;10.20;;;7.70;99.90;;;;;;5028406;28;20212;-88
2022/01/02 00:47:51;;;;;;;11.07;9.43;;;7.70;99.90;;;;;;5015279;28;20200;-88
2022/01/02 00:50:25;;;;;;;13.20;11.40;;;7.60;99.90;;;;;;5015758;28;20217;-87
2022/01/02 00:52:54;;;;;;;11.03;9.93;;;7.70;99.90;;;;;;5013858;28;20197;-87
2022/01/02 00:55:22;;;;;;;11.90;10.70;;;7.70;99.90;;;;;;5010392;28;20720;-87
2022/01/02 00:58:02;;;;;;;12.67;11.50;;;7.60;99.90;;;;;;5012865;28;20290;-87
2022/01/02 01:00:29;;;;;;;13.37;12.10;;;7.60;99.90;;;;;;5013714;28;20217;-88
2022/01/02 01:02:57;;;;;;;13.17;11.50;;;7.40;99.90;;;;;;5025672;28;20190;-87
2022/01/02 01:05:31;;;;;;;15.20;12.90;;;7.20;99.90;;;;;;5022179;28;20264;-88
2022/01/02 01:08:00;;;;;;;14.83;13.33;;;7.10;99.90;;;;;;5013719;28;20544;-88
2022/01/02 01:10:31;;;;;;;14.53;12.83;;;7.00;99.90;;;;;;5022575;28;20221;-87
2022/01/02 01:13:00;;;;;;;12.27;11.07;;;6.90;99.90;;;;;;5036340;28;20200;-87
2022/01/02 01:15:28;;;;;;;11.47;10.37;;;7.10;99.90;;;;;;5025335;28;20189;-88
2022/01/02 01:17:56;;;;;;;12.67;11.27;;;7.20;99.90;;;;;;5016504;28;20296;-88
2022/01/02 01:20:24;;;;;;;14.93;12.90;;;7.30;99.90;;;;;;5005719;28;20277;-88
2022/01/02 01:22:50;;;;;;;13.10;11.70;;;7.20;99.90;;;;;;5016849;28;20193;-88
2022/01/02 01:25:18;;;;;;;15.27;12.27;;;7.20;99.90;;;;;;5015362;28;20581;-87
2022/01/02 01:27:48;;;;;;;17.23;12.97;;;7.10;99.90;;;;;;5017466;28;20200;-87
2022/01/02 01:30:16;;;;;;;13.80;11.43;;;7.20;99.90;;;;;;5016854;28;20205;-87
2022/01/02 01:32:42;;;;;;;12.67;11.37;;;7.30;99.90;;;;;;5018547;28;20205;-89
2022/01/02 01:35:09;;;;;;;15.77;11.53;;;7.40;99.90;;;;;;5020426;28;20220;-88
2022/01/02 01:37:36;;;;;;;90.13;15.03;;;7.40;99.90;;;;;;5020601;28;20268;-88
2022/01/02 01:40:04;;;;;;;11.47;10.33;;;7.30;99.90;;;;;;5019928;28;20212;-87
2022/01/02 01:47:43;;;;;;;64.67;12.80;;;7.10;99.90;;;;;;5022526;28;20253;-88
2022/01/02 01:50:09;;;;;;;18.00;10.97;;;6.90;99.90;;;;;;5023412;28;20217;-88
2022/01/02 01:52:35;;;;;;;32.20;10.87;;;6.90;99.90;;;;;;5021672;28;20295;-88
2022/01/02 01:55:01;;;;;;;10.87;9.87;;;6.80;99.90;;;;;;5020498;28;20197;-88
2022/01/02 01:57:27;;;;;;;10.50;9.37;;;6.90;99.90;;;;;;5025377;28;20236;-88
2022/01/02 01:59:52;;;;;;;12.23;10.93;;;6.90;99.90;;;;;;5007699;28;20248;-88
2022/01/02 02:02:19;;;;;;;17.97;9.87;;;6.80;99.90;;;;;;5036473;28;20672;-88
2022/01/02 02:04:45;;;;;;;38.83;10.93;;;6.80;99.90;;;;;;5021538;28;20197;-88
2022/01/02 02:07:11;;;;;;;13.13;10.40;;;6.80;99.90;;;;;;5020905;28;20691;-88
2022/01/02 02:09:56;;;;;;;11.47;10.43;;;6.80;99.90;;;;;;5019889;28;20221;-88
2022/01/02 02:12:22;;;;;;;10.60;9.70;;;6.90;99.90;;;;;;5020147;28;20184;-88
2022/01/02 02:14:48;;;;;;;12.67;10.73;;;7.00;99.90;;;;;;5022120;28;20193;-88
2022/01/02 02:17:14;;;;;;;10.03;9.20;;;7.10;99.90;;;;;;5025933;28;20198;-88
2022/01/02 02:19:40;;;;;;;22.83;10.73;;;7.10;99.90;;;;;;5019240;28;20233;-88
2022/01/02 02:22:07;;;;;;;10.20;9.30;;;7.00;99.90;;;;;;5018419;28;20228;-87
2022/01/02 02:24:32;;;;;;;18.87;10.63;;;6.90;99.90;;;;;;5010588;28;20205;-88
2022/01/02 02:26:58;;;;;;;13.83;12.63;;;6.80;99.90;;;;;;5016969;28;20189;-88
2022/01/02 02:29:24;;;;;;;13.67;11.63;;;6.80;99.90;;;;;;5018140;28;20283;-88
2022/01/02 02:31:54;;;;;;;12.53;11.33;;;6.60;99.90;;;;;;5016631;28;20216;-88
2022/01/02 02:34:20;;;;;;;13.67;12.47;;;6.60;99.90;;;;;;5016814;28;20209;-88
2022/01/02 02:36:46;;;;;;;13.70;12.33;;;6.70;99.90;;;;;;5014276;28;20198;-88
2022/01/02 02:39:12;;;;;;;12.60;11.40;;;6.60;99.90;;;;;;5016794;28;20361;-88
2022/01/02 02:41:39;;;;;;;11.87;10.77;;;6.70;99.90;;;;;;5017671;28;20186;-87
2022/01/02 02:44:16;;;;;;;33.77;10.80;;;6.60;99.90;;;;;;5015187;28;20201;-88
2022/01/02 02:49:26;;;;;;;32.37;9.30;;;6.40;99.90;;;;;;5011544;28;20232;-87
2022/01/02 02:52:01;;;;;;;19.10;8.10;;;6.20;99.90;;;;;;5013536;28;20193;-88
2022/01/02 02:54:30;;;;;;;11.67;8.10;;;6.20;99.90;;;;;;5016866;28;20499;-88
2022/01/02 02:56:58;;;;;;;32.20;8.40;;;6.30;99.90;;;;;;5018544;28;20197;-88
2022/01/02 02:59:26;;;;;;;34.03;8.63;;;6.20;99.90;;;;;;5016628;28;20225;-87
2022/01/02 03:01:53;;;;;;;16.63;7.90;;;6.10;99.90;;;;;;5017476;28;20190;-88
2022/01/02 03:04:20;;;;;;;10.67;7.73;;;5.80;99.90;;;;;;5015941;28;20186;-87
2022/01/02 03:06:46;;;;;;;8.40;7.70;;;5.90;99.90;;;;;;5015732;28;20194;-87
2022/01/02 03:09:12;;;;;;;8.27;7.53;;;6.00;99.90;;;;;;5013476;28;20233;-87
2022/01/02 03:11:40;;;;;;;7.83;7.13;;;6.20;99.90;;;;;;5018796;28;20186;-87
2022/01/02 03:14:08;;;;;;;6.80;6.20;;;6.40;99.90;;;;;;5018319;28;20194;-87
2022/01/02 03:16:34;;;;;;;7.20;6.20;;;6.60;99.90;;;;;;5018207;28;20193;-87
2022/01/02 03:19:00;;;;;;;7.03;6.33;;;6.70;99.90;;;;;;5016506;28;20735;-87
2022/01/02 03:21:26;;;;;;;14.00;7.43;;;6.70;99.90;;;;;;5015391;28;20217;-88
2022/01/02 03:23:52;;;;;;;8.23;7.47;;;6.60;99.90;;;;;;5014918;28;20186;-87
2022/01/02 03:26:18;;;;;;;8.40;7.70;;;6.50;99.90;;;;;;5008649;28;20649;-87
2022/01/02 03:28:45;;;;;;;8.67;7.80;;;6.30;99.90;;;;;;5017372;28;20193;-88
2022/01/02 03:31:11;;;;;;;11.90;10.67;;;6.20;99.90;;;;;;5014680;28;20267;-87
2022/01/02 03:33:37;;;;;;;13.57;12.17;;;6.10;99.90;;;;;;5017117;28;20189;-87
2022/01/02 03:36:03;;;;;;;14.93;12.93;;;6.00;99.90;;;;;;5017341;28;20189;-87
2022/01/02 03:38:29;;;;;;;14.17;12.67;;;5.90;99.90;;;;;;5016423;28;20269;-88
2022/01/02 03:40:55;;;;;;;17.27;13.93;;;6.00;99.90;;;;;;5013241;28;20229;-87
2022/01/02 03:43:21;;;;;;;15.37;13.77;;;6.00;99.90;;;;;;5018304;28;20687;-88
2022/01/02 03:45:47;;;;;;;14.70;13.10;;;5.90;99.90;;;;;;5013260;28;20197;-87
2022/01/02 03:48:12;;;;;;;14.67;13.13;;;6.10;99.90;;;;;;5016599;28;20718;-88
2022/01/02 03:50:38;;;;;;;13.03;11.63;;;6.20;99.90;;;;;;5010273;28;20217;-85
2022/01/02 03:53:05;;;;;;;13.63;11.67;;;6.30;99.90;;;;;;5030691;28;20202;-86
2022/01/02 03:55:31;;;;;;;11.80;10.60;;;6.30;99.90;;;;;;5020291;28;20189;-88
2022/01/02 03:57:57;;;;;;;11.07;9.97;;;6.40;99.90;;;;;;5017059;28;20200;-88
2022/01/02 04:00:23;;;;;;;13.17;11.77;;;6.40;99.90;;;;;;5025116;28;20265;-86
2022/01/02 04:02:48;;;;;;;12.63;11.33;;;6.50;99.90;;;;;;5033443;28;20259;-86
2022/01/02 04:05:15;;;;;;;12.77;10.57;;;6.50;99.90;;;;;;5016598;28;20202;-87
2022/01/02 04:07:42;;;;;;;12.13;10.93;;;6.40;99.90;;;;;;5016187;28;20185;-88
2022/01/02 04:10:12;;;;;;;13.10;11.73;;;6.30;99.90;;;;;;5014328;28;20225;-88
2022/01/02 04:12:38;;;;;;;14.07;12.67;;;6.40;99.90;;;;;;5013030;28;20212;-88
2022/01/02 04:15:07;;;;;;;13.10;11.80;;;6.40;99.90;;;;;;5014580;28;20194;-88
2022/01/02 04:17:33;;;;;;;13.00;11.70;;;6.40;99.90;;;;;;5015082;28;20229;-88
2022/01/02 04:20:00;;;;;;;11.83;10.63;;;6.60;99.90;;;;;;5023159;28;20217;-87
2022/01/02 04:22:26;;;;;;;13.73;12.43;;;6.80;99.90;;;;;;5018305;28;20181;-87
2022/01/02 04:24:52;;;;;;;12.20;11.03;;;6.80;99.90;;;;;;5021453;28;20649;-87
2022/01/02 04:27:19;;;;;;;12.50;10.73;;;6.80;99.90;;;;;;5013848;28;20224;-88
2022/01/02 04:29:45;;;;;;;11.23;10.20;;;7.00;99.90;;;;;;5017797;28;20233;-87
2022/01/02 04:32:11;;;;;;;11.47;10.37;;;6.90;99.90;;;;;;5019411;28;20197;-87
2022/01/02 04:34:37;;;;;;;12.90;11.57;;;7.00;99.90;;;;;;5018269;28;20208;-87
2022/01/02 04:37:04;;;;;;;12.00;10.87;;;7.00;99.90;;;;;;5019350;28;20249;-86
2022/01/02 04:39:32;;;;;;;11.87;10.67;;;7.00;99.90;;;;;;5018583;28;20235;-87
2022/01/02 04:41:57;;;;;;;11.17;10.13;;;7.00;99.90;;;;;;5017906;28;20652;-87
2022/01/02 04:44:23;;;;;;;11.03;10.03;;;7.10;99.90;;;;;;5018558;28;20197;-87
2022/01/02 04:46:49;;;;;;;11.77;10.57;;;7.20;99.90;;;;;;5018164;28;20603;-87
2022/01/02 04:49:15;;;;;;;11.13;10.13;;;7.20;99.90;;;;;;5017865;28;20280;-87
2022/01/02 04:51:40;;;;;;;12.20;10.93;;;7.10;99.90;;;;;;5018267;28;20603;-87
2022/01/02 04:54:06;;;;;;;11.77;10.57;;;7.10;99.90;;;;;;5018312;28;20189;-86
2022/01/02 04:56:32;;;;;;;10.63;9.63;;;6.90;99.90;;;;;;5017866;28;20200;-88
2022/01/02 04:58:57;;;;;;;11.27;10.27;;;6.90;99.90;;;;;;5018140;28;20216;-87
2022/01/02 05:01:23;;;;;;;11.27;10.20;;;6.90;99.90;;;;;;5019311;28;20209;-88
2022/01/02 05:03:49;;;;;;;10.93;9.93;;;6.90;99.90;;;;;;5018987;28;20182;-86
2022/01/02 05:06:14;;;;;;;10.87;9.87;;;7.00;99.90;;;;;;5017201;28;20205;-88
2022/01/02 05:08:44;;;;;;;10.33;9.37;;;7.00;99.90;;;;;;5010714;28;20213;-87
2022/01/02 05:11:10;;;;;;;11.27;10.20;;;6.90;99.90;;;;;;5017151;28;20698;-86
2022/01/02 05:13:36;;;;;;;10.40;9.50;;;6.80;99.90;;;;;;5020447;28;20193;-88
2022/01/02 05:16:02;;;;;;;11.23;10.03;;;6.70;99.90;;;;;;5019120;28;20204;-87
2022/01/02 05:18:28;;;;;;;10.93;9.83;;;6.80;99.90;;;;;;5019413;28;20209;-86
2022/01/02 05:20:54;;;;;;;10.17;9.17;;;6.80;99.90;;;;;;5021725;28;20216;-87
2022/01/02 05:23:21;;;;;;;10.13;9.23;;;6.90;99.90;;;;;;5021731;28;20256;-88
2022/01/02 05:25:48;;;;;;;10.60;9.50;;;6.80;99.90;;;;;;5021086;28;20194;-88
2022/01/02 05:28:14;;;;;;;11.20;10.17;;;6.80;99.90;;;;;;5022424;28;20192;-88
2022/01/02 05:30:40;;;;;;;11.97;10.77;;;6.80;99.90;;;;;;5016706;28;20284;-88
2022/01/02 05:33:07;;;;;;;11.50;10.40;;;6.60;99.90;;;;;;5021031;28;20281;-88
2022/01/02 05:35:34;;;;;;;11.10;10.10;;;6.50;99.90;;;;;;5020725;28;20186;-87
2022/01/02 05:38:03;;;;;;;11.20;10.10;;;6.60;99.90;;;;;;5018791;28;20343;-87
2022/01/02 05:40:31;;;;;;;11.20;10.13;;;6.70;99.90;;;;;;5021638;28;20221;-87
2022/01/02 05:43:01;;;;;;;11.00;9.93;;;6.80;99.90;;;;;;5023508;28;20197;-88
2022/01/02 05:45:27;;;;;;;10.97;9.87;;;6.80;99.90;;;;;;5036854;28;20182;-87
2022/01/02 05:47:53;;;;;;;11.30;10.13;;;6.90;99.90;;;;;;5018657;28;20221;-88
2022/01/02 05:50:19;;;;;;;12.70;11.47;;;6.90;99.90;;;;;;5037507;28;20224;-88
2022/01/02 05:52:44;;;;;;;12.70;11.43;;;6.80;99.90;;;;;;5022686;28;20194;-87
2022/01/02 05:55:10;;;;;;;11.03;9.97;;;6.70;99.90;;;;;;5019637;28;20214;-88
2022/01/02 05:57:36;;;;;;;10.37;9.37;;;6.60;99.90;;;;;;5021443;28;20198;-88
2022/01/02 06:00:04;;;;;;;10.83;9.83;;;6.60;99.90;;;;;;5019538;28;20224;-88
2022/01/02 06:02:31;;;;;;;11.47;10.47;;;6.50;99.90;;;;;;5022551;28;20441;-88
2022/01/02 06:04:57;;;;;;;11.27;10.07;;;6.50;99.90;;;;;;5035373;28;20193;-87
2022/01/02 06:07:23;;;;;;;11.53;10.43;;;6.60;99.90;;;;;;5013633;28;20183;-88
2022/01/02 06:09:48;;;;;;;10.73;9.73;;;6.60;99.90;;;;;;5019647;28;20217;-87
2022/01/02 06:12:14;;;;;;;12.10;10.90;;;6.70;99.90;;;;;;5022001;28;20220;-88
2022/01/02 06:14:40;;;;;;;10.77;9.03;;;6.80;99.90;;;;;;5020875;28;20204;-87
2022/01/02 06:17:06;;;;;;;11.10;9.80;;;6.90;99.90;;;;;;5005181;28;20649;-87
2022/01/02 06:19:31;;;;;;;10.47;9.47;;;6.90;99.90;;;;;;5016206;28;20232;-88
2022/01/02 06:21:57;;;;;;;9.20;8.40;;;6.90;99.90;;;;;;5009515;28;20197;-87
2022/01/02 06:24:23;;;;;;;9.23;8.43;;;6.90;99.90;;;;;;5019916;28;20193;-87
2022/01/02 06:26:49;;;;;;;9.70;8.73;;;7.00;99.90;;;;;;5019103;28;20196;-87
2022/01/02 06:29:14;;;;;;;9.27;8.30;;;7.00;99.90;;;;;;5005957;28;20251;-87
2022/01/02 06:31:40;;;;;;;9.40;8.50;;;7.00;99.90;;;;;;5017422;28;20210;-87
2022/01/02 06:34:06;;;;;;;8.80;8.00;;;7.00;99.90;;;;;;5019104;28;20665;-87
2022/01/02 06:36:31;;;;;;;9.50;8.60;;;6.90;99.90;;;;;;5020534;28;20193;-87
2022/01/02 06:38:57;;;;;;;8.80;8.00;;;6.90;99.90;;;;;;5020097;28;20235;-88
2022/01/02 06:41:23;;;;;;;9.43;8.63;;;6.90;99.90;;;;;;5026370;28;20201;-85
2022/01/02 06:43:52;;;;;;;9.67;8.83;;;6.80;99.90;;;;;;5033233;28;20204;-87
2022/01/02 06:46:18;;;;;;;8.93;8.13;;;6.70;99.90;;;;;;5018249;28;20200;-88
2022/01/02 06:48:45;;;;;;;8.80;7.67;;;6.80;99.90;;;;;;5019894;28;20296;-88
2022/01/02 06:51:12;;;;;;;9.50;8.60;;;6.80;99.90;;;;;;5026027;28;20281;-84
2022/01/02 06:53:37;;;;;;;9.20;8.23;;;6.80;99.90;;;;;;5035604;28;20193;-86
2022/01/02 06:56:03;;;;;;;8.57;7.73;;;6.90;99.90;;;;;;5024677;28;20263;-88
2022/01/02 06:58:30;;;;;;;9.37;8.50;;;6.90;99.90;;;;;;5019786;28;20213;-88
2022/01/02 07:00:56;;;;;;;9.23;8.40;;;6.80;99.90;;;;;;5032900;28;20236;-87
2022/01/02 07:03:22;;;;;;;9.17;8.33;;;6.80;99.90;;;;;;5020703;28;20668;-88
2022/01/02 07:05:48;;;;;;;8.93;8.03;;;6.80;99.90;;;;;;5016460;28;20186;-87
2022/01/02 07:08:15;;;;;;;10.40;8.53;;;6.80;99.90;;;;;;5016609;28;20224;-88
2022/01/02 07:10:41;;;;;;;9.63;8.47;;;6.90;99.90;;;;;;5015206;28;20417;-85
2022/01/02 07:13:07;;;;;;;10.07;9.00;;;6.90;99.90;;;;;;5014205;28;20190;-86
2022/01/02 07:15:32;;;;;;;10.83;9.73;;;6.80;99.90;;;;;;5017746;28;20676;-86
2022/01/02 07:17:58;;;;;;;8.63;7.83;;;6.80;99.90;;;;;;5012228;28;20193;-86
2022/01/02 07:20:24;;;;;;;9.00;8.20;;;6.70;99.90;;;;;;5012928;28;20225;-87
2022/01/02 07:22:49;;;;;;;8.67;7.87;;;6.60;99.90;;;;;;5018647;28;20253;-86
2022/01/02 07:25:15;;;;;;;9.57;8.63;;;6.70;99.90;;;;;;5019978;28;20219;-85
2022/01/02 07:27:41;;;;;;;9.97;8.97;;;6.80;99.90;;;;;;5018487;28;20688;-88
2022/01/02 07:30:08;;;;;;;11.50;8.97;;;6.60;99.90;;;;;;5017346;28;20210;-86
2022/01/02 07:32:34;;;;;;;9.90;8.90;;;6.50;99.90;;;;;;5020604;28;20188;-87
2022/01/02 07:35:00;;;;;;;11.50;9.47;;;6.40;99.90;;;;;;5017011;28;20251;-86
2022/01/02 07:37:26;;;;;;;10.97;9.07;;;6.20;99.90;;;;;;5016725;28;20185;-87
2022/01/02 07:39:51;;;;;;;9.63;8.63;;;6.10;99.90;;;;;;5017455;28;20213;-87
2022/01/02 07:42:17;;;;;;;8.90;7.93;;;6.00;99.90;;;;;;5014478;28;20234;-87
2022/01/02 07:44:43;;;;;;;9.37;8.50;;;5.90;99.90;;;;;;5018692;28;20182;-86
2022/01/02 07:47:09;;;;;;;9.80;7.97;;;5.90;99.90;;;;;;5019564;28;20189;-87
2022/01/02 07:49:35;;;;;;;9.13;8.33;;;5.80;99.90;;;;;;5017461;28;20228;-87
2022/01/02 07:52:01;;;;;;;9.43;8.43;;;5.80;99.90;;;;;;5014508;28;20194;-86
2022/01/02 07:54:26;;;;;;;10.07;8.43;;;5.70;99.90;;;;;;5015465;28;20272;-87
2022/01/02 07:56:52;;;;;;;11.63;8.90;;;5.70;99.90;;;;;;5020870;28;20216;-86
2022/01/02 07:59:18;;;;;;;9.50;8.53;;;5.80;99.90;;;;;;5037941;28;20239;-86
2022/01/02 08:01:44;;;;;;;10.23;9.10;;;5.80;99.90;;;;;;5025216;28;20239;-86
2022/01/02 08:04:10;;;;;;;9.47;8.57;;;5.90;99.90;;;;;;5015040;28;20570;-87
2022/01/02 08:06:36;;;;;;;9.47;8.57;;;6.00;99.90;;;;;;5029622;28;20657;-86
2022/01/02 08:09:02;;;;;;;9.33;8.43;;;6.00;99.90;;;;;;5022679;28;20189;-87
2022/01/02 08:11:28;;;;;;;9.70;8.80;;;5.90;99.90;;;;;;5023076;28;20236;-87
2022/01/02 08:13:55;;;;;;;12.23;10.37;;;5.80;99.90;;;;;;5023997;28;20270;-87
2022/01/02 08:16:21;;;;;;;11.70;10.50;;;5.80;99.90;;;;;;5021812;28;20551;-86
2022/01/02 08:18:47;;;;;;;12.27;11.10;;;5.70;99.90;;;;;;5022064;28;20275;-87
2022/01/02 08:21:12;;;;;;;12.67;11.37;;;5.70;99.90;;;;;;5018792;28;20248;-86
2022/01/02 08:23:38;;;;;;;11.73;10.57;;;5.70;99.90;;;;;;5022113;28;20280;-86
2022/01/02 08:26:04;;;;;;;14.73;10.80;;;5.80;99.90;;;;;;5015092;28;20631;-86
2022/01/02 08:28:30;;;;;;;11.97;10.77;;;5.90;99.90;;;;;;5018846;28;20286;-87
2022/01/02 08:30:55;;;;;;;13.87;12.10;;;5.90;99.90;;;;;;5024579;28;20217;-87
2022/01/02 08:33:21;;;;;;;14.10;11.17;;;5.90;99.90;;;;;;5036089;28;20309;-86
2022/01/02 08:35:48;;;;;;;12.03;10.20;;;5.90;99.90;;;;;;5021073;28;20798;-87
2022/01/02 08:38:14;;;;;;;11.80;10.53;;;5.90;99.90;;;;;;5003414;28;20185;-85
2022/01/02 08:40:41;;;;;;;11.33;10.23;;;6.00;99.90;;;;;;5018426;28;20577;-88
2022/01/02 08:43:07;;;;;;;11.60;10.40;;;5.90;99.90;;;;;;5015088;28;20196;-86
2022/01/02 08:45:35;;;;;;;11.73;10.40;;;5.90;99.90;;;;;;5022207;28;20194;-87
2022/01/02 08:48:01;;;;;;;12.37;10.20;;;6.00;99.90;;;;;;5022040;28;20194;-87
2022/01/02 08:50:27;;;;;;;12.70;10.93;;;5.90;99.90;;;;;;5022611;28;20205;-86
2022/01/02 08:52:53;;;;;;;12.43;11.20;;;5.90;99.90;;;;;;5014339;28;20209;-87
2022/01/02 08:55:19;;;;;;;14.53;12.70;;;6.00;99.90;;;;;;5015870;28;20202;-86
2022/01/02 08:57:45;;;;;;;12.60;11.40;;;6.00;99.90;;;;;;5016944;28;20653;-87
2022/01/02 09:00:11;;;;;;;13.23;11.27;;;6.10;99.90;;;;;;5014700;28;20229;-87
2022/01/02 09:02:37;;;;;;;13.33;11.60;;;6.20;99.90;;;;;;5014649;28;20197;-87
2022/01/02 09:05:03;;;;;;;13.37;11.17;;;6.20;99.90;;;;;;5014741;28;20181;-88
2022/01/02 09:07:29;;;;;;;13.83;11.83;;;6.40;99.90;;;;;;5018702;28;20193;-87
2022/01/02 09:09:54;;;;;;;15.03;11.77;;;6.50;99.90;;;;;;5011279;28;20860;-87
2022/01/02 09:12:20;;;;;;;12.70;11.00;;;6.50;99.90;;;;;;5020661;28;20261;-87
2022/01/02 09:14:46;;;;;;;13.13;11.60;;;6.60;99.90;;;;;;5024656;28;20656;-87
2022/01/02 09:17:11;;;;;;;13.53;11.47;;;6.70;99.90;;;;;;5019568;28;20217;-87
2022/01/02 09:19:37;;;;;;;12.90;11.33;;;6.60;99.90;;;;;;5016793;28;20249;-87
2022/01/02 09:22:03;;;;;;;12.53;11.27;;;6.70;99.90;;;;;;5017542;28;20193;-87
2022/01/02 09:24:29;;;;;;;14.63;11.40;;;6.90;99.90;;;;;;5015651;28;20225;-87
2022/01/02 09:26:56;;;;;;;14.03;10.27;;;7.00;99.90;;;;;;5016292;28;21316;-87
2022/01/02 09:29:22;;;;;;;12.30;10.77;;;7.00;99.90;;;;;;5015344;28;20189;-87
2022/01/02 09:31:48;;;;;;;12.83;11.47;;;7.10;99.90;;;;;;5024427;28;20212;-87
2022/01/02 09:34:14;;;;;;;12.93;10.97;;;7.10;99.90;;;;;;5037333;28;20186;-87
2022/01/02 09:36:39;;;;;;;12.43;10.93;;;7.00;99.90;;;;;;5021881;28;20190;-87
2022/01/02 09:39:06;;;;;;;14.50;12.10;;;6.90;99.90;;;;;;5020808;28;20222;-87
2022/01/02 09:41:32;;;;;;;13.63;11.70;;;6.90;99.90;;;;;;5030950;28;20198;-86
2022/01/02 09:43:58;;;;;;;13.43;11.80;;;6.90;99.90;;;;;;5036716;28;20220;-87
2022/01/02 09:46:27;;;;;;;15.77;12.30;;;6.90;99.90;;;;;;5025792;28;20257;-87
2022/01/02 09:48:54;;;;;;;14.40;12.37;;;7.00;99.90;;;;;;5020394;28;20208;-87
2022/01/02 09:51:26;;;;;;;14.60;12.03;;;6.90;99.90;;;;;;5016690;28;20836;-87
2022/01/02 09:53:54;;;;;;;14.67;12.53;;;6.90;99.90;;;;;;5008190;28;20209;-87
2022/01/02 09:56:21;;;;;;;13.80;12.30;;;6.90;99.90;;;;;;5019379;28;20193;-87
2022/01/02 09:58:47;;;;;;;13.20;11.90;;;6.80;99.90;;;;;;5016698;28;20383;-87
2022/01/02 10:01:23;;;;;;;13.73;12.33;;;6.80;99.90;;;;;;5017295;28;20244;-87
2022/01/02 10:03:54;;;;;;;14.13;12.63;;;6.80;99.90;;;;;;5016590;28;20200;-87
2022/01/02 10:06:36;;;;;;;14.80;13.27;;;6.80;99.90;;;;;;5020790;28;20209;-87
2022/01/02 10:09:02;;;;;;;14.03;12.70;;;6.80;99.90;;;;;;5021391;28;20185;-87
2022/01/02 10:11:28;;;;;;;14.27;12.43;;;6.80;99.90;;;;;;5023189;28;20209;-87
2022/01/02 10:14:01;;;;;;;14.40;12.90;;;6.80;99.90;;;;;;5023131;28;20212;-86
2022/01/02 10:16:42;;;;;;;14.73;12.17;;;7.00;99.90;;;;;;5019949;28;20210;-87
2022/01/02 10:19:29;;;;;;;14.17;12.00;;;7.10;99.90;;;;;;5017440;28;20201;-87
2022/01/02 10:21:59;;;;;;;13.73;11.70;;;7.10;99.90;;;;;;5013954;28;20190;-87
2022/01/02 10:24:37;;;;;;;13.33;11.93;;;7.00;99.90;;;;;;5021823;28;20248;-87
2022/01/02 10:27:03;;;;;;;13.77;11.87;;;6.90;99.90;;;;;;5020401;28;20194;-87
2022/01/02 10:29:44;;;;;;;14.20;11.37;;;7.00;99.90;;;;;;5019265;28;20209;-87
2022/01/02 10:32:25;;;;;;;13.43;12.03;;;7.00;99.90;;;;;;5016525;28;20202;-87
2022/01/02 10:34:52;;;;;;;13.43;10.87;;;7.10;99.90;;;;;;5018071;28;20193;-87
2022/01/02 10:37:25;;;;;;;13.60;11.67;;;7.20;99.90;;;;;;5013844;28;20205;-87
2022/01/02 10:39:51;;;;;;;12.17;10.97;;;7.30;99.90;;;;;;5019962;28;20224;-87
2022/01/02 10:42:18;;;;;;;12.83;11.13;;;7.30;99.90;;;;;;5015207;28;20186;-87
2022/01/02 10:44:44;;;;;;;12.33;11.03;;;7.30;99.90;;;;;;5017960;28;20201;-87
2022/01/02 10:47:18;;;;;;;13.43;12.07;;;7.30;99.90;;;;;;5015168;28;20193;-87
2022/01/02 10:49:51;;;;;;;13.40;11.43;;;7.30;99.90;;;;;;5018714;28;20739;-87
2022/01/02 10:52:18;;;;;;;13.00;11.70;;;7.60;99.90;;;;;;5016738;28;20212;-87
2022/01/02 10:54:43;;;;;;;12.37;11.07;;;7.80;99.90;;;;;;5014328;28;20205;-87
2022/01/02 10:57:10;;;;;;;14.10;11.03;;;8.10;99.90;;;;;;4997821;28;20173;-87
2022/01/02 10:59:38;;;;;;;11.73;10.50;;;8.30;99.90;;;;;;5010955;28;21085;-87
2022/01/02 11:02:04;;;;;;;11.73;10.53;;;8.30;99.90;;;;;;5021041;28;20197;-87
2022/01/02 11:04:32;;;;;;;11.80;10.63;;;8.20;99.90;;;;;;5009906;28;20205;-87
2022/01/02 11:07:04;;;;;;;10.43;9.33;;;8.20;99.90;;;;;;5015111;28;20669;-87
2022/01/02 11:09:32;;;;;;;10.97;9.90;;;8.20;99.90;;;;;;5014254;28;20576;-87
2022/01/02 11:11:58;;;;;;;11.03;9.70;;;8.10;99.90;;;;;;5013428;28;20556;-86
2022/01/02 11:14:23;;;;;;;10.30;9.30;;;8.10;99.90;;;;;;5016408;28;20205;-87
2022/01/02 11:16:49;;;;;;;9.20;8.30;;;8.30;99.90;;;;;;5013847;28;20197;-87
2022/01/02 11:19:16;;;;;;;9.50;8.60;;;8.40;99.90;;;;;;5017908;28;20217;-87
2022/01/02 11:21:44;;;;;;;9.37;8.30;;;8.50;99.90;;;;;;5034354;28;20190;-87
2022/01/02 11:24:18;;;;;;;9.37;8.37;;;8.50;99.90;;;;;;5017983;28;20688;-87
2022/01/02 11:26:55;;;;;;;9.77;8.30;;;8.60;99.90;;;;;;5016688;28;20193;-87
2022/01/02 11:29:29;;;;;;;8.63;7.80;;;8.60;99.90;;;;;;5016742;28;20196;-87
2022/01/02 11:31:55;;;;;;;10.27;8.30;;;8.60;99.90;;;;;;5018114;28;20251;-87
2022/01/02 11:34:24;;;;;;;7.60;6.73;;;8.60;99.90;;;;;;5016926;28;20190;-87
2022/01/02 11:36:51;;;;;;;8.23;7.43;;;8.60;99.90;;;;;;5018212;28;20200;-87
2022/01/02 11:39:17;;;;;;;9.37;6.90;;;8.80;98.80;;;;;;5019847;28;20248;-87
2022/01/02 11:41:51;;;;;;;6.70;6.10;;;9.00;97.90;;;;;;5016247;28;20193;-87
2022/01/02 11:44:49;;;;;;;6.83;5.67;;;9.30;96.40;;;;;;5018510;28;20208;-87
2022/01/02 11:47:39;;;;;;;5.90;5.30;;;9.40;95.80;;;;;;5018045;28;20221;-87
2022/01/02 11:50:25;;;;;;;7.17;5.10;;;9.80;94.10;;;;;;5023241;28;20285;-87
2022/01/02 11:53:09;;;;;;;5.30;4.70;;;10.20;92.80;;;;;;5014017;28;20220;-87
2022/01/02 11:55:35;;;;;;;5.67;4.90;;;10.60;88.50;;;;;;5035503;28;20194;-87
2022/01/02 11:58:01;;;;;;;8.53;7.70;;;10.70;88.10;;;;;;5021778;28;20556;-87
2022/01/02 12:00:36;;;;;;;6.30;4.40;;;10.80;86.50;;;;;;5022130;28;20213;-87
2022/01/02 12:03:02;;;;;;;5.23;4.73;;;10.70;86.90;;;;;;5035548;28;20199;-87
2022/01/02 12:05:28;;;;;;;4.63;4.23;;;10.60;88.00;;;;;;5020529;28;20217;-87
2022/01/02 12:07:54;;;;;;;4.90;4.40;;;10.70;87.30;;;;;;5018272;28;20200;-87
2022/01/02 12:10:24;;;;;;;4.67;4.03;;;11.00;84.40;;;;;;5021859;28;20696;-87
2022/01/02 12:13:15;;;;;;;5.67;4.73;;;11.40;83.20;;;;;;5022082;28;20188;-87
2022/01/02 12:15:41;;;;;;;6.17;4.87;;;11.60;82.10;;;;;;5018006;28;20194;-87
2022/01/02 12:18:41;;;;;;;4.83;4.33;;;11.50;83.80;;;;;;5016977;28;20194;-87
2022/01/02 12:21:04;;;;;;;4.30;3.80;;;11.50;81.60;;;;;;5015251;28;20217;-87
2022/01/02 12:23:33;;;;;;;5.00;4.23;;;11.40;82.80;;;;;;5025802;28;20204;-87
2022/01/02 12:26:00;;;;;;;4.17;3.77;;;11.30;84.30;;;;;;5018466;28;20194;-87
2022/01/02 12:28:27;;;;;;;4.20;3.80;;;11.30;81.50;;;;;;5018949;28;20194;-87
2022/01/02 12:30:53;;;;;;;4.40;4.00;;;11.30;81.60;;;;;;5022671;28;20190;-86
2022/01/02 12:33:27;;;;;;;3.97;3.50;;;11.40;81.30;;;;;;5025766;28;20199;-86
2022/01/02 12:35:53;;;;;;;4.30;3.20;;;11.50;78.70;;;;;;5020614;28;20201;-87
2022/01/02 12:38:19;;;;;;;3.43;3.17;;;11.60;79.90;;;;;;5017997;28;20197;-87
2022/01/02 12:40:49;;;;;;;3.77;3.23;;;11.60;79.00;;;;;;5023290;28;20217;-86
2022/01/02 12:43:23;;;;;;;3.87;3.47;;;11.70;77.10;;;;;;5023818;28;20185;-88
2022/01/02 12:45:55;;;;;;;4.07;3.40;;;11.60;77.50;;;;;;5008184;28;20204;-86
2022/01/02 12:48:32;;;;;;;4.10;3.80;;;11.80;78.30;;;;;;5027109;28;20200;-87
2022/01/02 12:51:17;;;;;;;3.80;3.40;;;11.70;79.80;;;;;;5026182;28;20708;-85
2022/01/02 12:54:02;;;;;;;4.10;3.40;;;11.80;76.80;;;;;;5025865;28;20217;-87